Time;durP1;ratioP1;P1;durP2;ratioP2;P2;SDS_P1;SDS_P2;PMS_P1;PMS_P2;Temp;Humidity;BMP_temperature;BMP_pressure;BME280_temperature;BME280_humidity;BME280_pressure;Samples;Min_cycle;Max_cycle;Signal;HPM_P1;HPM_P2
2023/10/19 00:04:35;;;;;;;3.03;2.50;;;;;;;;;;12856016;23;20040;-77
2023/10/19 00:09:39;;;;;;;3.60;2.92;;;;;;;;;;12869614;23;20099;-77
2023/10/19 00:14:44;;;;;;;4.00;3.22;;;;;;;;;;12868243;23;20025;-77
2023/10/19 00:19:57;;;;;;;5.93;4.28;;;;;;;;;;12869039;23;20029;-77
2023/10/19 00:25:02;;;;;;;3.42;2.90;;;;;;;;;;12866220;23;20157;-76
2023/10/19 00:30:10;;;;;;;4.97;4.10;;;;;;;;;;12854702;23;20075;-77
2023/10/19 00:35:27;;;;;;;5.38;3.90;;;;;;;;;;12865314;23;20020;-77
2023/10/19 00:40:36;;;;;;;4.05;3.60;;;;;;;;;;12857793;23;20047;-77
2023/10/19 00:45:41;;;;;;;4.30;3.17;;;;;;;;;;12828874;23;20042;-77
2023/10/19 00:50:47;;;;;;;4.88;3.60;;;;;;;;;;12828880;23;20052;-77
2023/10/19 00:55:52;;;;;;;5.15;3.67;;;;;;;;;;12863701;23;20024;-78
2023/10/19 01:00:59;;;;;;;4.97;3.90;;;;;;;;;;12862895;23;20029;-77
2023/10/19 01:06:09;;;;;;;4.00;3.60;;;;;;;;;;12862204;23;20020;-77
2023/10/19 01:11:15;;;;;;;4.68;3.25;;;;;;;;;;12859855;23;20032;-77
2023/10/19 01:16:23;;;;;;;3.15;2.58;;;;;;;;;;12827181;23;20095;-77
2023/10/19 01:21:35;;;;;;;3.53;2.72;;;;;;;;;;12858951;23;20063;-77
2023/10/19 01:26:42;;;;;;;2.63;2.40;;;;;;;;;;12826587;23;20102;-77
2023/10/19 01:31:55;;;;;;;4.30;3.85;;;;;;;;;;12857323;23;20479;-77
2023/10/19 01:37:02;;;;;;;6.53;4.13;;;;;;;;;;12826246;23;20029;-76
2023/10/19 01:42:08;;;;;;;5.28;4.40;;;;;;;;;;12860885;22;20043;-77
2023/10/19 01:47:12;;;;;;;6.43;4.55;;;;;;;;;;12897747;22;20024;-76
2023/10/19 01:52:15;;;;;;;5.47;4.03;;;;;;;;;;12822847;23;20099;-76
2023/10/19 01:57:20;;;;;;;4.65;3.42;;;;;;;;;;12852418;23;20029;-76
2023/10/19 02:02:23;;;;;;;4.28;3.30;;;;;;;;;;12825346;23;20024;-77
2023/10/19 02:07:28;;;;;;;4.50;3.17;;;;;;;;;;12853627;23;20379;-76
2023/10/19 02:12:34;;;;;;;5.18;3.63;;;;;;;;;;12824351;23;20016;-76
2023/10/19 02:17:39;;;;;;;;;;;;;;;;;;12826008;23;20029;-77
2023/10/19 02:22:43;;;;;;;4.43;2.97;;;;;;;;;;12851834;23;19990;-76
2023/10/19 02:27:48;;;;;;;4.28;2.58;;;;;;;;;;12824428;23;20030;-76
2023/10/19 02:32:53;;;;;;;4.95;3.63;;;;;;;;;;12822813;23;20352;-77
2023/10/19 02:37:58;;;;;;;5.40;3.58;;;;;;;;;;12871443;23;20397;-77
2023/10/19 02:43:03;;;;;;;4.70;3.55;;;;;;;;;;12823801;23;20805;-77
2023/10/19 02:48:11;;;;;;;6.00;3.40;;;;;;;;;;12870859;23;20325;-77
2023/10/19 02:53:15;;;;;;;3.75;2.65;;;;;;;;;;12824561;23;20020;-77
2023/10/19 02:58:20;;;;;;;3.47;2.63;;;;;;;;;;12869355;23;20483;-77
2023/10/19 03:03:26;;;;;;;6.45;4.20;;;;;;;;;;12824709;23;20087;-76
2023/10/19 03:08:29;;;;;;;5.97;4.07;;;;;;;;;;12869137;23;20021;-77
2023/10/19 03:13:34;;;;;;;4.13;3.13;;;;;;;;;;12824072;23;20104;-77
2023/10/19 03:18:38;;;;;;;5.65;4.05;;;;;;;;;;12868221;23;20020;-76
2023/10/19 03:23:42;;;;;;;6.88;4.57;;;;;;;;;;12867980;23;20027;-76
2023/10/19 03:28:47;;;;;;;5.45;4.05;;;;;;;;;;12823690;23;20019;-77
2023/10/19 03:33:54;;;;;;;5.03;3.90;;;;;;;;;;12823896;23;20024;-76
2023/10/19 03:39:00;;;;;;;;;;;;;;;;;;12824532;23;20407;-77
2023/10/19 03:44:07;;;;;;;8.60;5.60;;;;;;;;;;12866062;23;19942;-77
2023/10/19 03:49:11;;;;;;;10.00;5.85;;;;;;;;;;12865936;23;20032;-77
2023/10/19 03:54:22;;;;;;;9.32;5.95;;;;;;;;;;12864458;23;20036;-76
2023/10/19 03:59:31;;;;;;;7.97;4.72;;;;;;;;;;12823636;23;20074;-76
2023/10/19 04:04:35;;;;;;;6.18;4.63;;;;;;;;;;12824045;23;20112;-77
2023/10/19 04:09:56;;;;;;;4.65;3.45;;;;;;;;;;12850776;23;20091;-76
2023/10/19 04:15:10;;;;;;;6.32;4.30;;;;;;;;;;12862309;23;20032;-77
2023/10/19 04:20:28;;;;;;;4.93;3.75;;;;;;;;;;12853314;23;20024;-77
2023/10/19 04:25:32;;;;;;;4.40;3.40;;;;;;;;;;12825633;23;20029;-76
2023/10/19 04:30:37;;;;;;;5.50;3.85;;;;;;;;;;12863794;23;20024;-76
2023/10/19 04:35:41;;;;;;;4.10;3.20;;;;;;;;;;12862346;23;20080;-77
2023/10/19 04:40:46;;;;;;;5.28;3.45;;;;;;;;;;12862249;23;20448;-77
2023/10/19 04:45:51;;;;;;;4.63;3.60;;;;;;;;;;12862083;23;20441;-77
2023/10/19 04:50:54;;;;;;;4.65;3.78;;;;;;;;;;12862280;23;20020;-77
2023/10/19 04:56:00;;;;;;;4.88;3.70;;;;;;;;;;12851701;23;20309;-78
2023/10/19 05:01:05;;;;;;;5.77;4.23;;;;;;;;;;12831022;23;20360;-77
2023/10/19 05:06:09;;;;;;;7.35;4.68;;;;;;;;;;12856345;23;20314;-77
2023/10/19 05:11:13;;;;;;;6.70;4.72;;;;;;;;;;12862064;23;20056;-77
2023/10/19 05:16:17;;;;;;;6.53;3.42;;;;;;;;;;12863206;23;20030;-77
2023/10/19 05:21:21;;;;;;;3.90;3.13;;;;;;;;;;12861199;23;20356;-76
2023/10/19 05:26:26;;;;;;;4.53;3.88;;;;;;;;;;12860678;23;20047;-76
2023/10/19 05:31:31;;;;;;;7.00;3.35;;;;;;;;;;12859719;23;20025;-76
2023/10/19 05:36:35;;;;;;;4.05;3.03;;;;;;;;;;12859639;23;20507;-76
2023/10/19 05:41:39;;;;;;;4.43;3.03;;;;;;;;;;12827768;23;20360;-76
2023/10/19 05:46:46;;;;;;;4.53;3.53;;;;;;;;;;12854705;23;20048;-76
2023/10/19 05:51:50;;;;;;;6.07;3.55;;;;;;;;;;12827668;23;20020;-76
2023/10/19 05:56:53;;;;;;;4.50;3.10;;;;;;;;;;12827713;23;20038;-76
2023/10/19 06:01:58;;;;;;;5.75;3.60;;;;;;;;;;12857643;23;20452;-76
2023/10/19 06:07:02;;;;;;;3.88;2.95;;;;;;;;;;12826264;23;20056;-76
2023/10/19 06:12:09;;;;;;;3.65;2.78;;;;;;;;;;12854020;23;20035;-76
2023/10/19 06:17:18;;;;;;;4.22;2.85;;;;;;;;;;12827503;23;20058;-76
2023/10/19 06:22:22;;;;;;;3.78;2.42;;;;;;;;;;12854776;23;20021;-76
2023/10/19 06:27:26;;;;;;;3.03;2.40;;;;;;;;;;12827507;23;20025;-76
2023/10/19 06:32:31;;;;;;;3.53;2.50;;;;;;;;;;12855114;23;20514;-77
2023/10/19 06:37:34;;;;;;;3.22;2.58;;;;;;;;;;12855255;23;20024;-76
2023/10/19 06:42:38;;;;;;;3.83;2.75;;;;;;;;;;12826748;23;20027;-77
2023/10/19 06:47:45;;;;;;;4.20;3.00;;;;;;;;;;12853512;23;20345;-77
2023/10/19 06:52:49;;;;;;;5.57;3.13;;;;;;;;;;12853141;23;20031;-81
2023/10/19 06:57:55;;;;;;;6.65;3.80;;;;;;;;;;12873843;23;20082;-77
2023/10/19 07:03:01;;;;;;;5.57;3.57;;;;;;;;;;12854411;23;20025;-77
2023/10/19 07:08:07;;;;;;;4.63;2.70;;;;;;;;;;12826502;23;20744;-77
2023/10/19 07:13:11;;;;;;;4.07;2.60;;;;;;;;;;12853812;23;20054;-77
2023/10/19 07:18:15;;;;;;;6.88;3.60;;;;;;;;;;12872357;23;20031;-76
2023/10/19 07:23:19;;;;;;;3.53;2.75;;;;;;;;;;12871496;23;20519;-77
2023/10/19 07:28:26;;;;;;;4.82;3.10;;;;;;;;;;12826812;23;20025;-77
2023/10/19 07:33:30;;;;;;;;;;;;;;;;;;12826658;23;20051;-77
2023/10/19 07:38:34;;;;;;;4.10;2.45;;;;;;;;;;12826598;23;19916;-77
2023/10/19 07:43:38;;;;;;;3.38;2.58;;;;;;;;;;12859064;22;20016;-77
2023/10/19 07:48:43;;;;;;;3.20;2.38;;;;;;;;;;12893782;23;20031;-77
2023/10/19 07:53:47;;;;;;;3.67;2.28;;;;;;;;;;12868759;23;20028;-76
2023/10/19 07:58:50;;;;;;;4.30;2.42;;;;;;;;;;12871185;23;20031;-77
2023/10/19 08:03:55;;;;;;;3.00;2.60;;;;;;;;;;12870674;23;20040;-77
2023/10/19 08:08:59;;;;;;;4.20;2.38;;;;;;;;;;12870665;23;20062;-76
2023/10/19 08:14:02;;;;;;;2.85;2.15;;;;;;;;;;12854389;23;20021;-77
2023/10/19 08:19:07;;;;;;;2.58;2.20;;;;;;;;;;12854263;23;20535;-76
2023/10/19 08:24:13;;;;;;;3.40;2.33;;;;;;;;;;12869291;23;20459;-77
2023/10/19 08:29:19;;;;;;;4.40;2.28;;;;;;;;;;12868555;23;20039;-77
2023/10/19 08:34:25;;;;;;;4.40;2.55;;;;;;;;;;12868129;23;20028;-76
2023/10/19 08:39:35;;;;;;;;;;;;;;;;;;12867939;23;20036;-77
2023/10/19 08:44:39;;;;;;;3.83;2.15;;;;;;;;;;12867034;23;20366;-77
2023/10/19 08:49:43;;;;;;;2.25;1.88;;;;;;;;;;12866481;23;20139;-76
2023/10/19 08:54:48;;;;;;;3.13;1.80;;;;;;;;;;12866188;23;20025;-76
2023/10/19 08:59:52;;;;;;;3.80;2.00;;;;;;;;;;12865617;23;20021;-76
2023/10/19 09:04:59;;;;;;;2.88;1.70;;;;;;;;;;12852786;23;20384;-76
2023/10/19 09:10:05;;;;;;;3.97;1.98;;;;;;;;;;12825993;23;20021;-77
2023/10/19 09:15:23;;;;;;;4.45;1.98;;;;;;;;;;12825673;23;20265;-77
2023/10/19 09:20:28;;;;;;;3.85;1.75;;;;;;;;;;12853110;23;20029;-76
2023/10/19 09:25:32;;;;;;;3.63;1.85;;;;;;;;;;12861874;23;20029;-77
2023/10/19 09:30:35;;;;;;;4.43;1.65;;;;;;;;;;12861673;23;20024;-76
2023/10/19 09:35:43;;;;;;;2.65;1.48;;;;;;;;;;12825076;23;20035;-76
2023/10/19 09:40:47;;;;;;;0.77;0.70;;;;;;;;;;12860659;23;20029;-76
2023/10/19 09:45:53;;;;;;;2.63;1.40;;;;;;;;;;12853563;23;20052;-76
2023/10/19 09:50:58;;;;;;;;;;;;;;;;;;12858019;23;20029;-76
2023/10/19 09:56:06;;;;;;;1.77;1.30;;;;;;;;;;12848614;23;19919;-76
2023/10/19 10:01:14;;;;;;;3.22;1.10;;;;;;;;;;12857718;23;20028;-76
2023/10/19 10:06:30;;;;;;;3.78;1.60;;;;;;;;;;12857381;23;20028;-76
2023/10/19 10:11:34;;;;;;;3.28;1.42;;;;;;;;;;12852070;23;20025;-76
2023/10/19 10:16:38;;;;;;;2.40;1.20;;;;;;;;;;12823650;23;20031;-76
2023/10/19 10:22:11;;;;;;;3.17;1.13;;;;;;;;;;12855195;23;20048;-77
2023/10/19 10:27:19;;;;;;;2.08;1.55;;;;;;;;;;12850878;23;20068;-76
2023/10/19 10:32:44;;;;;;;2.70;1.60;;;;;;;;;;12824158;23;20024;-76
2023/10/19 10:37:55;;;;;;;2.25;1.48;;;;;;;;;;12850284;23;20044;-76
2023/10/19 10:43:06;;;;;;;3.20;2.00;;;;;;;;;;12823323;23;20334;-76
2023/10/19 10:48:13;;;;;;;3.28;1.52;;;;;;;;;;12869381;23;20025;-76
2023/10/19 10:53:18;;;;;;;3.55;2.15;;;;;;;;;;12850610;23;20091;-76
2023/10/19 10:58:22;;;;;;;2.67;1.65;;;;;;;;;;12867635;23;20292;-76
2023/10/19 11:03:29;;;;;;;2.15;1.10;;;;;;;;;;12823519;23;20017;-76
2023/10/19 11:08:34;;;;;;;1.88;1.10;;;;;;;;;;12867189;23;20024;-77
2023/10/19 11:13:38;;;;;;;2.88;1.75;;;;;;;;;;12867259;23;20027;-76
2023/10/19 11:18:45;;;;;;;1.90;1.50;;;;;;;;;;12867219;23;20043;-76
2023/10/19 11:23:52;;;;;;;2.47;1.60;;;;;;;;;;12866201;23;20017;-76
2023/10/19 11:28:59;;;;;;;3.40;2.30;;;;;;;;;;12866796;23;20078;-76
2023/10/19 11:34:02;;;;;;;2.47;2.08;;;;;;;;;;12827434;23;20104;-76
2023/10/19 11:39:11;;;;;;;2.88;1.90;;;;;;;;;;12869245;23;20028;-76
2023/10/19 11:44:14;;;;;;;2.50;1.75;;;;;;;;;;12827108;23;20024;-76
2023/10/19 11:49:20;;;;;;;3.15;1.83;;;;;;;;;;12868815;23;20040;-76
2023/10/19 11:54:27;;;;;;;2.10;1.58;;;;;;;;;;12867669;23;20025;-76
2023/10/19 11:59:31;;;;;;;3.05;2.03;;;;;;;;;;12867605;23;20033;-76
2023/10/19 12:04:36;;;;;;;2.90;1.58;;;;;;;;;;12866890;23;20344;-76
2023/10/19 12:09:41;;;;;;;1.77;1.10;;;;;;;;;;12866248;23;20395;-76
2023/10/19 12:14:44;;;;;;;3.10;1.27;;;;;;;;;;12866514;23;20422;-76
2023/10/19 12:19:47;;;;;;;2.03;1.10;;;;;;;;;;12853851;23;20092;-76
2023/10/19 12:24:52;;;;;;;2.05;1.60;;;;;;;;;;12853550;23;20047;-76
2023/10/19 12:29:55;;;;;;;2.20;1.40;;;;;;;;;;12865043;23;20064;-76
2023/10/19 12:34:58;;;;;;;3.10;1.23;;;;;;;;;;12853505;23;20027;-76
2023/10/19 12:40:25;;;;;;;2.17;1.17;;;;;;;;;;12851778;23;20059;-76
2023/10/19 12:45:27;;;;;;;3.30;1.38;;;;;;;;;;12862497;23;20429;-76
2023/10/19 12:50:30;;;;;;;3.83;1.65;;;;;;;;;;12862412;23;20341;-75
2023/10/19 12:55:37;;;;;;;2.70;1.40;;;;;;;;;;12852795;23;20027;-76
2023/10/19 13:00:44;;;;;;;2.10;1.35;;;;;;;;;;12853567;23;20028;-76
2023/10/19 13:05:49;;;;;;;2.53;1.20;;;;;;;;;;12858503;23;20048;-78
2023/10/19 13:10:55;;;;;;;1.35;1.10;;;;;;;;;;12877990;23;20033;-77
2023/10/19 13:16:05;;;;;;;2.05;1.42;;;;;;;;;;12867872;23;20040;-78
2023/10/19 13:21:11;;;;;;;2.70;1.47;;;;;;;;;;12830935;23;20031;-78
2023/10/19 13:26:18;;;;;;;3.10;1.58;;;;;;;;;;12857087;23;20067;-78
2023/10/19 13:31:22;;;;;;;4.65;1.95;;;;;;;;;;12862175;23;20024;-78
2023/10/19 13:36:25;;;;;;;2.78;1.90;;;;;;;;;;12829143;23;20016;-78
2023/10/19 13:41:32;;;;;;;3.15;2.13;;;;;;;;;;12857200;22;20076;-77
2023/10/19 13:46:37;;;;;;;3.22;2.40;;;;;;;;;;12906626;22;20027;-79
2023/10/19 13:51:40;;;;;;;4.03;2.22;;;;;;;;;;12830439;23;20524;-78
2023/10/19 13:56:46;;;;;;;3.15;2.58;;;;;;;;;;12860538;23;20028;-78
2023/10/19 14:01:50;;;;;;;4.13;2.67;;;;;;;;;;12844874;23;20028;-78
2023/10/19 14:06:56;;;;;;;3.28;2.50;;;;;;;;;;12843592;23;20040;-78
2023/10/19 14:12:05;;;;;;;3.45;2.40;;;;;;;;;;12858649;23;20127;-78
2023/10/19 14:17:10;;;;;;;3.47;2.40;;;;;;;;;;12859551;23;20020;-78
2023/10/19 14:22:21;;;;;;;4.53;2.80;;;;;;;;;;12855973;23;20028;-78
2023/10/19 14:27:50;;;;;;;3.80;2.33;;;;;;;;;;12858389;23;20356;-78
2023/10/19 14:33:25;;;;;;;;;;;;;;;;;;;;;
2023/10/19 14:38:58;;;;;;;3.60;2.30;;;;;;;;;;12829612;23;20059;-79
2023/10/19 14:44:07;;;;;;;3.28;2.33;;;;;;;;;;12839129;23;20048;-79
2023/10/19 14:49:28;;;;;;;3.25;1.95;;;;;;;;;;12881445;23;20028;-79
2023/10/19 14:54:55;;;;;;;2.70;1.63;;;;;;;;;;12870491;23;20103;-79
2023/10/19 15:00:37;;;;;;;1.85;1.45;;;;;;;;;;12840023;23;20035;-77
2023/10/19 15:11:58;;;;;;;1.40;1.30;;;;;;;;;;12837744;23;20025;-77
2023/10/19 15:17:14;;;;;;;;;;;;;;;;;;12853538;23;20017;-77
2023/10/19 15:22:21;;;;;;;1.27;1.10;;;;;;;;;;12827480;23;19943;-77
2023/10/19 15:27:29;;;;;;;0.93;0.82;;;;;;;;;;12854199;23;20091;-77
2023/10/19 15:32:47;;;;;;;2.80;1.02;;;;;;;;;;12852674;23;20029;-77
2023/10/19 15:38:05;;;;;;;0.80;0.80;;;;;;;;;;12853729;23;20040;-77
2023/10/19 15:43:10;;;;;;;1.80;1.10;;;;;;;;;;12872270;23;20104;-77
2023/10/19 15:48:19;;;;;;;1.77;1.47;;;;;;;;;;12824393;23;20020;-77
2023/10/19 15:53:25;;;;;;;1.20;1.10;;;;;;;;;;12869774;23;20020;-77
2023/10/19 15:58:29;;;;;;;1.80;1.05;;;;;;;;;;12869538;23;20464;-77
2023/10/19 16:03:37;;;;;;;1.33;0.98;;;;;;;;;;12824960;23;20025;-77
2023/10/19 16:08:40;;;;;;;1.10;0.80;;;;;;;;;;12825227;23;20024;-77
2023/10/19 16:13:44;;;;;;;1.52;1.10;;;;;;;;;;12868571;23;20091;-77
2023/10/19 16:18:49;;;;;;;1.38;1.10;;;;;;;;;;12872992;23;20048;-77
2023/10/19 16:23:52;;;;;;;1.17;1.00;;;;;;;;;;12871854;23;20020;-77
2023/10/19 16:28:56;;;;;;;1.13;0.95;;;;;;;;;;12854997;23;20095;-77
2023/10/19 16:34:02;;;;;;;1.42;0.93;;;;;;;;;;12871137;23;20020;-77
2023/10/19 16:39:15;;;;;;;1.85;1.40;;;;;;;;;;12870360;23;20499;-77
2023/10/19 16:44:19;;;;;;;2.20;1.48;;;;;;;;;;12860055;23;20024;-77
2023/10/19 16:49:28;;;;;;;3.47;1.95;;;;;;;;;;12884393;23;20025;-78
2023/10/19 16:54:33;;;;;;;6.32;4.35;;;;;;;;;;12878535;23;20024;-77
2023/10/19 16:59:42;;;;;;;3.47;2.20;;;;;;;;;;12870812;23;20035;-77
2023/10/19 17:05:00;;;;;;;2.30;1.75;;;;;;;;;;12830317;23;20363;-77
2023/10/19 17:10:24;;;;;;;2.70;1.80;;;;;;;;;;12857168;23;20108;-77
2023/10/19 17:15:37;;;;;;;4.10;2.58;;;;;;;;;;12814094;23;20352;-77
2023/10/19 17:20:46;;;;;;;6.82;3.78;;;;;;;;;;12857922;23;20032;-78
2023/10/19 17:25:50;;;;;;;4.10;2.50;;;;;;;;;;12857060;23;20079;-77
2023/10/19 17:30:55;;;;;;;2.03;1.80;;;;;;;;;;12831245;23;20103;-78
2023/10/19 17:36:04;;;;;;;3.30;2.08;;;;;;;;;;12856874;23;20407;-77
2023/10/19 17:41:07;;;;;;;3.72;2.10;;;;;;;;;;12862990;23;20363;-77
2023/10/19 17:46:11;;;;;;;2.25;1.70;;;;;;;;;;12862658;23;20024;-77
2023/10/19 17:51:18;;;;;;;2.63;1.92;;;;;;;;;;12862991;23;20029;-78
2023/10/19 17:56:22;;;;;;;5.88;2.75;;;;;;;;;;12830055;23;20364;-78
2023/10/19 18:01:26;;;;;;;5.00;3.00;;;;;;;;;;12829525;23;20348;-77
2023/10/19 18:06:31;;;;;;;5.65;3.78;;;;;;;;;;12855485;23;20028;-77
2023/10/19 18:11:37;;;;;;;12.15;6.25;;;;;;;;;;12828954;23;20031;-77
2023/10/19 18:16:41;;;;;;;2.78;2.47;;;;;;;;;;12855144;23;20017;-77
2023/10/19 18:21:46;;;;;;;2.80;1.95;;;;;;;;;;12853856;23;20055;-77
2023/10/19 18:26:50;;;;;;;2.60;2.23;;;;;;;;;;12855804;23;20024;-77
2023/10/19 18:31:53;;;;;;;2.35;1.85;;;;;;;;;;12859086;23;20032;-77
2023/10/19 18:36:59;;;;;;;3.67;2.00;;;;;;;;;;12856533;23;20515;-77
2023/10/19 18:42:03;;;;;;;2.55;2.00;;;;;;;;;;12857910;23;20016;-78
2023/10/19 18:47:06;;;;;;;2.50;1.58;;;;;;;;;;12849919;23;20052;-78
2023/10/19 18:52:13;;;;;;;2.10;1.30;;;;;;;;;;12870074;23;20483;-78
2023/10/19 18:57:18;;;;;;;1.50;1.38;;;;;;;;;;12860018;23;20021;-78
2023/10/19 19:02:22;;;;;;;1.70;1.60;;;;;;;;;;12818420;23;20404;-78
2023/10/19 19:07:27;;;;;;;4.45;1.92;;;;;;;;;;12857892;23;20357;-78
2023/10/19 19:12:31;;;;;;;1.50;1.40;;;;;;;;;;12858115;23;20099;-77
2023/10/19 19:17:35;;;;;;;1.70;1.27;;;;;;;;;;12855553;23;20287;-78
2023/10/19 19:22:41;;;;;;;2.47;1.80;;;;;;;;;;12855836;23;20029;-77
2023/10/19 19:27:45;;;;;;;1.73;1.63;;;;;;;;;;12855447;23;20805;-78
2023/10/19 19:32:49;;;;;;;2.53;2.03;;;;;;;;;;12829030;23;20021;-78
2023/10/19 19:37:55;;;;;;;2.63;2.13;;;;;;;;;;12829264;23;20344;-78
2023/10/19 19:42:58;;;;;;;2.50;2.00;;;;;;;;;;12845891;22;20023;-77
2023/10/19 19:48:03;;;;;;;1.52;1.42;;;;;;;;;;12907673;23;20091;-77
2023/10/19 19:53:09;;;;;;;2.03;1.73;;;;;;;;;;12875692;23;20572;-78
2023/10/19 19:58:13;;;;;;;1.88;1.70;;;;;;;;;;12857857;23;20464;-78
2023/10/19 20:03:16;;;;;;;2.92;2.35;;;;;;;;;;12856949;23;20040;-78
2023/10/19 20:08:22;;;;;;;3.72;2.15;;;;;;;;;;12806316;23;20020;-78
2023/10/19 20:13:26;;;;;;;2.35;2.00;;;;;;;;;;12875359;23;20103;-78
2023/10/19 20:18:29;;;;;;;1.42;1.33;;;;;;;;;;12874080;23;20464;-78
2023/10/19 20:23:34;;;;;;;1.35;1.23;;;;;;;;;;12873226;23;20165;-78
2023/10/19 20:28:38;;;;;;;1.60;1.45;;;;;;;;;;12855545;23;20564;-78
2023/10/19 20:33:41;;;;;;;1.33;1.23;;;;;;;;;;12828825;23;20025;-77
2023/10/19 20:38:47;;;;;;;1.55;1.45;;;;;;;;;;12870132;23;20108;-78
2023/10/19 20:43:51;;;;;;;1.92;1.55;;;;;;;;;;12876158;23;20391;-78
2023/10/19 20:48:55;;;;;;;1.83;1.63;;;;;;;;;;12862309;23;20049;-78
2023/10/19 20:54:02;;;;;;;2.47;1.65;;;;;;;;;;12856887;23;20337;-78
2023/10/19 20:59:05;;;;;;;2.13;1.35;;;;;;;;;;12827594;23;20028;-77
2023/10/19 21:04:09;;;;;;;2.17;1.98;;;;;;;;;;12855680;23;20271;-78
2023/10/19 21:09:15;;;;;;;3.20;2.60;;;;;;;;;;12826743;23;20333;-78
2023/10/19 21:14:19;;;;;;;4.00;3.60;;;;;;;;;;12870509;23;20051;-78
2023/10/19 21:19:23;;;;;;;3.30;3.00;;;;;;;;;;12828578;23;20050;-78
2023/10/19 21:24:36;;;;;;;5.30;4.03;;;;;;;;;;12828983;23;20028;-77
2023/10/19 21:29:39;;;;;;;5.10;4.15;;;;;;;;;;12828740;23;20033;-77
2023/10/19 21:34:43;;;;;;;5.20;4.28;;;;;;;;;;12827982;23;20020;-78
2023/10/19 21:39:48;;;;;;;4.72;3.83;;;;;;;;;;12828477;23;20024;-78
2023/10/19 21:44:51;;;;;;;4.80;3.88;;;;;;;;;;12866856;23;20025;-78
2023/10/19 21:49:55;;;;;;;4.93;4.05;;;;;;;;;;12866645;23;20104;-78
2023/10/19 21:55:00;;;;;;;3.05;2.72;;;;;;;;;;12827627;23;20334;-79
2023/10/19 22:00:12;;;;;;;4.13;3.30;;;;;;;;;;12829576;23;20088;-80
2023/10/19 22:05:15;;;;;;;3.05;2.53;;;;;;;;;;12829409;23;20035;-80
2023/10/19 22:10:27;;;;;;;2.63;2.13;;;;;;;;;;12829807;23;20025;-80
2023/10/19 22:15:31;;;;;;;1.77;1.63;;;;;;;;;;12828588;23;20021;-79
2023/10/19 22:20:34;;;;;;;1.90;1.67;;;;;;;;;;12854789;23;20036;-79
2023/10/19 22:25:39;;;;;;;1.77;1.35;;;;;;;;;;12828833;23;20020;-80
2023/10/19 22:30:43;;;;;;;1.80;1.33;;;;;;;;;;12828392;23;20095;-79
2023/10/19 22:35:49;;;;;;;1.10;1.00;;;;;;;;;;12862456;23;20099;-80
2023/10/19 22:40:53;;;;;;;0.85;0.85;;;;;;;;;;12884832;23;20036;-80
2023/10/19 22:46:04;;;;;;;1.00;0.90;;;;;;;;;;12862597;23;20029;-79
2023/10/19 22:51:08;;;;;;;0.90;0.90;;;;;;;;;;12855791;23;20615;-78
2023/10/19 22:56:12;;;;;;;0.70;0.70;;;;;;;;;;12860305;23;20055;-79
2023/10/19 23:01:16;;;;;;;1.63;0.80;;;;;;;;;;12854088;23;20455;-79
2023/10/19 23:06:20;;;;;;;1.00;1.00;;;;;;;;;;12859625;23;20397;-79
2023/10/19 23:11:29;;;;;;;0.95;0.80;;;;;;;;;;12854141;23;20040;-79
2023/10/19 23:16:35;;;;;;;0.70;0.70;;;;;;;;;;12859413;23;20020;-79
2023/10/19 23:21:39;;;;;;;1.40;0.90;;;;;;;;;;12858049;23;20523;-79
2023/10/19 23:26:46;;;;;;;0.82;0.70;;;;;;;;;;12859549;23;20051;-78
2023/10/19 23:31:50;;;;;;;1.98;1.00;;;;;;;;;;12864070;23;20040;-79
2023/10/19 23:36:53;;;;;;;0.68;0.68;;;;;;;;;;12863280;23;20066;-78
2023/10/19 23:42:00;;;;;;;0.70;0.50;;;;;;;;;;12862473;23;20099;-79
2023/10/19 23:47:04;;;;;;;0.32;0.32;;;;;;;;;;12861093;23;20404;-78
2023/10/19 23:52:07;;;;;;;0.65;0.52;;;;;;;;;;12862790;23;20023;-78
2023/10/19 23:57:12;;;;;;;0.55;0.45;;;;;;;;;;12832927;23;20100;-78
